Bastwell, United Kingdom
Current Conditions -  °F | °C
As of 6:20 PM on Thursday 27 Nov 2014 (Local Time) from EGNO Reporting Station
Broken Clouds Broken Clouds  
Wind Chill:   Ceiling: 2300
Heat Index:   Visibility: 6mi
Dew Point:   Wind: 6mph
Humidity: 93%   Direction: 120°ESE
Pressure: 29.56"   Gusts: NA
Location:  53.74°N, 2.47°W
Report Text: EGNO 271820Z 12005KT 9000 FEW008 BKN023 08/07 Q1001
Loading
Personal Weather Stations






























Interactive Weather Map New forecast layout! Learn more

10-Day Weather Forecast

Advertisements
Track Severe Weather on mobile